Time;durP1;ratioP1;P1;durP2;ratioP2;P2;SDS_P1;SDS_P2;PMS_P1;PMS_P2;Temp;Humidity;BMP_temperature;BMP_pressure;BME280_temperature;BME280_humidity;BME280_pressure;Samples;Min_cycle;Max_cycle;Signal;HPM_P1;HPM_P2
2022/02/06 00:00:09;;;;;;;;;;;;;;;9.33;100.00;97827.63;4671364;30;20305;-74
2022/02/06 00:02:45;;;;;;;;;;;;;;;9.14;100.00;97817.47;4667162;30;20405;-75
2022/02/06 00:05:14;;;;;;;;;;;;;;;9.27;100.00;97828.63;4652491;30;19932;-74
2022/02/06 00:07:41;;;;;;;;;;;;;;;8.94;100.00;97820.44;4667357;30;19936;-74
2022/02/06 00:10:11;;;;;;;;;;;;;;;9.03;100.00;97815.00;4667349;30;19935;-74
2022/02/06 00:12:40;;;;;;;;;;;;;;;8.74;100.00;97825.38;4651842;30;20034;-74
2022/02/06 00:15:07;;;;;;;;;;;;;;;8.90;100.00;97830.91;4651971;30;19943;-74
2022/02/06 00:17:34;;;;;;;;;;;;;;;9.09;100.00;97824.38;4651750;30;19932;-74
2022/02/06 00:20:05;;;;;;;;;;;;;;;9.22;100.00;97831.97;4667274;30;20022;-75
2022/02/06 00:32:53;;;;;;;;;;;;;;;9.06;100.00;97805.75;4651322;30;19939;-75
2022/02/06 00:35:30;;;;;;;;;;;;;;;9.02;100.00;97807.88;4656147;30;20482;-75
2022/02/06 00:43:10;;;;;;;;;;;;;;;9.02;100.00;97799.50;4654446;30;20404;-74
2022/02/06 00:45:37;;;;;;;;;;;;;;;9.01;100.00;97772.09;4646085;30;19954;-75
2022/02/06 00:48:04;;;;;;;;;;;;;;;9.18;100.00;97788.28;4636976;30;19932;-75
2022/02/06 00:50:34;;;;;;;;;;;;;;;9.08;100.00;97783.81;4637531;30;19944;-75
2022/02/06 00:53:05;;;;;;;;;;;;;;;9.20;100.00;97776.66;4667395;30;20301;-75
2022/02/06 00:55:32;;;;;;;;;;;;;;;9.13;100.00;97780.44;4666888;30;19932;-75
2022/02/06 00:58:00;;;;;;;;;;;;;;;9.08;100.00;97788.59;4676556;30;20453;-75
2022/02/06 01:00:27;;;;;;;;;;;;;;;8.84;100.00;97774.19;4683665;30;20448;-74
2022/02/06 01:02:54;;;;;;;;;;;;;;;8.84;100.00;97776.97;4683573;30;19938;-74
2022/02/06 01:05:25;;;;;;;;;;;;;;;8.75;100.00;97779.59;4683913;30;19938;-74
2022/02/06 01:07:53;;;;;;;;;;;;;;;8.78;100.00;97761.25;4683773;30;19954;-74
2022/02/06 01:10:23;;;;;;;;;;;;;;;8.89;100.00;97759.69;4683669;30;20400;-74
2022/02/06 01:12:57;;;;;;;;;;;;;;;9.05;100.00;97751.25;4668766;30;19932;-75
2022/02/06 01:15:30;;;;;;;;;;;;;;;9.18;100.00;97753.28;4683484;30;20361;-75
2022/02/06 01:18:02;;;;;;;;;;;;;;;9.00;100.00;97742.66;4683678;30;19971;-74
2022/02/06 01:20:35;;;;;;;;;;;;;;;9.01;100.00;97753.34;4683604;30;20365;-75
2022/02/06 01:23:21;;;;;;;;;;;;;;;8.86;100.00;97743.88;4683381;30;19931;-75
2022/02/06 01:25:56;;;;;;;;;;;;;;;9.06;100.00;97755.59;4667756;30;20301;-75
2022/02/06 01:28:38;;;;;;;;;;;;;;;8.90;100.00;97733.41;4682942;30;20282;-75
2022/02/06 01:34:00;;;;;;;;;;;;;;;8.97;100.00;97738.78;4676942;30;20461;-75
2022/02/06 01:36:43;;;;;;;;;;;;;;;9.15;100.00;97750.16;4666044;30;19936;-74
2022/02/06 01:39:24;;;;;;;;;;;;;;;9.26;100.00;97749.03;4666272;30;19939;-75
2022/02/06 01:41:56;;;;;;;;;;;;;;;9.19;100.00;97727.75;4651234;30;19935;-74
2022/02/06 01:44:38;;;;;;;;;;;;;;;8.97;100.00;97724.84;4650766;30;19938;-74
2022/02/06 02:03:28;;;;;;;;;;;;;;;9.06;100.00;97701.88;4671160;30;19931;-74
2022/02/06 02:09:58;;;;;;;;;;;;;;;9.10;100.00;97672.66;4686228;30;20262;-74
2022/02/06 02:48:12;;;;;;;;;;;;;;;9.35;100.00;97601.41;4653324;30;19940;-74
2022/02/06 02:50:43;;;;;;;;;;;;;;;9.35;100.00;97596.63;4668584;30;19939;-74
2022/02/06 02:53:28;;;;;;;;;;;;;;;9.40;100.00;97587.69;4668485;30;20293;-75
2022/02/06 03:03:25;;;;;;;;;;;;;;;9.42;100.00;97570.50;4668355;30;19982;-74
2022/02/06 03:05:54;;;;;;;;;;;;;;;9.53;100.00;97554.16;4668372;30;19955;-75
2022/02/06 03:08:22;;;;;;;;;;;;;;;9.57;100.00;97546.47;4668425;30;19931;-75
2022/02/06 03:10:54;;;;;;;;;;;;;;;9.44;100.00;97534.56;4667664;30;19949;-75
2022/02/06 03:13:25;;;;;;;;;;;;;;;9.28;100.00;97532.78;4668063;30;19931;-75
2022/02/06 03:16:04;;;;;;;;;;;;;;;9.34;100.00;97521.81;4668064;30;19932;-74
2022/02/06 03:18:35;;;;;;;;;;;;;;;9.38;100.00;97505.72;4668136;30;19938;-75
2022/02/06 03:21:06;;;;;;;;;;;;;;;9.52;100.00;97506.00;4666857;30;20381;-75
2022/02/06 03:23:37;;;;;;;;;;;;;;;9.53;100.00;97506.78;4668095;30;19932;-74
2022/02/06 03:26:04;;;;;;;;;;;;;;;9.70;100.00;97502.56;4667796;30;19938;-74
2022/02/06 03:28:31;;;;;;;;;;;;;;;9.73;100.00;97499.66;4667822;30;19932;-74
2022/02/06 03:30:59;;;;;;;;;;;;;;;9.42;100.00;97490.44;4667934;30;20310;-74
2022/02/06 03:33:26;;;;;;;;;;;;;;;9.50;100.00;97485.38;4680868;30;19939;-74
2022/02/06 03:35:53;;;;;;;;;;;;;;;9.43;100.00;97480.06;4655317;30;19935;-75
2022/02/06 03:38:20;;;;;;;;;;;;;;;9.47;100.00;97475.13;4655268;30;20551;-74
2022/02/06 03:40:55;;;;;;;;;;;;;;;9.67;100.00;97456.06;4669240;30;19938;-74
2022/02/06 03:43:33;;;;;;;;;;;;;;;9.68;100.00;97468.78;4684807;30;19936;-75
2022/02/06 03:46:08;;;;;;;;;;;;;;;9.54;100.00;97458.16;4684873;30;19971;-74
2022/02/06 03:49:03;;;;;;;;;;;;;;;9.37;100.00;97465.16;4684834;30;19938;-74
2022/02/06 03:51:33;;;;;;;;;;;;;;;9.39;100.00;97454.34;4684608;30;19966;-74
2022/02/06 03:54:01;;;;;;;;;;;;;;;9.33;100.00;97447.81;4684629;30;19938;-74
2022/02/06 03:56:29;;;;;;;;;;;;;;;9.42;100.00;97445.06;4684380;30;19938;-74
2022/02/06 03:58:57;;;;;;;;;;;;;;;9.27;100.00;97438.47;4669240;30;19931;-74
2022/02/06 04:01:24;;;;;;;;;;;;;;;9.38;100.00;97436.84;4684416;30;20361;-74
2022/02/06 04:03:52;;;;;;;;;;;;;;;9.44;100.00;97423.06;4669136;30;20392;-74
2022/02/06 04:06:19;;;;;;;;;;;;;;;9.42;100.00;97428.34;4684462;30;20428;-74
2022/02/06 04:08:47;;;;;;;;;;;;;;;9.27;100.00;97416.16;4684234;30;20025;-74
2022/02/06 04:11:25;;;;;;;;;;;;;;;9.25;100.00;97426.97;4684126;30;19974;-74
2022/02/06 04:13:56;;;;;;;;;;;;;;;9.28;100.00;97428.88;4668673;30;20325;-74
2022/02/06 04:16:36;;;;;;;;;;;;;;;9.32;100.00;97430.28;4684607;30;19990;-74
2022/02/06 04:19:16;;;;;;;;;;;;;;;9.24;100.00;97444.94;4668713;30;20029;-74
2022/02/06 04:21:43;;;;;;;;;;;;;;;8.78;100.00;97430.63;4668030;30;19931;-74
2022/02/06 04:24:10;;;;;;;;;;;;;;;7.85;100.00;97468.66;4668623;30;20022;-74
2022/02/06 04:26:38;;;;;;;;;;;;;;;7.54;100.00;97476.75;4684157;30;19967;-74
2022/02/06 04:29:05;;;;;;;;;;;;;;;7.41;100.00;97452.94;4684022;30;19939;-74
2022/02/06 04:31:33;;;;;;;;;;;;;;;7.50;100.00;97466.94;4683991;30;19935;-74
2022/02/06 04:34:00;;;;;;;;;;;;;;;7.38;100.00;97465.69;4683845;30;20374;-74
2022/02/06 04:36:34;;;;;;;;;;;;;;;7.26;100.00;97444.19;4683883;30;19931;-74
2022/02/06 04:53:20;;;;;;;;;;;;;;;7.45;100.00;97459.94;4647525;30;20283;-74
2022/02/06 05:23:05;;;;;;;;;;;;;;;7.60;100.00;97421.38;4683159;30;19936;-73
2022/02/06 05:30:50;;;;;;;;;;;;;;;7.71;100.00;97425.38;4646089;30;20079;-74
2022/02/06 05:33:17;;;;;;;;;;;;;;;7.75;100.00;97428.84;4638607;30;19962;-74
2022/02/06 05:35:44;;;;;;;;;;;;;;;7.47;100.00;97421.34;4677523;30;19939;-73
2022/02/06 05:38:11;;;;;;;;;;;;;;;7.24;100.00;97421.63;4688754;30;19978;-73
2022/02/06 05:40:38;;;;;;;;;;;;;;;7.47;100.00;97390.78;4688711;30;19990;-74
2022/02/06 05:43:05;;;;;;;;;;;;;;;7.51;100.00;97394.25;4688798;30;19971;-74
2022/02/06 05:45:32;;;;;;;;;;;;;;;7.55;100.00;97392.13;4673620;30;19931;-73
2022/02/06 05:47:59;;;;;;;;;;;;;;;7.66;100.00;97411.25;4673522;30;19931;-73
2022/02/06 05:50:27;;;;;;;;;;;;;;;7.74;100.00;97401.50;4688610;30;20298;-74
2022/02/06 05:52:54;;;;;;;;;;;;;;;7.77;100.00;97389.47;4688528;30;19931;-73
2022/02/06 05:55:21;;;;;;;;;;;;;;;7.63;100.00;97389.91;4688571;30;19937;-74
2022/02/06 05:57:49;;;;;;;;;;;;;;;7.60;100.00;97388.03;4673422;30;19971;-74
2022/02/06 06:00:16;;;;;;;;;;;;;;;7.84;100.00;97383.69;4673424;30;19931;-74
2022/02/06 06:02:43;;;;;;;;;;;;;;;7.75;100.00;97391.91;4673231;30;19939;-74
2022/02/06 06:05:10;;;;;;;;;;;;;;;7.94;100.00;97399.25;4672223;30;19936;-74
2022/02/06 06:07:44;;;;;;;;;;;;;;;7.78;100.00;97397.38;4666247;30;19931;-74
2022/02/06 06:10:11;;;;;;;;;;;;;;;7.85;100.00;97386.03;4688485;30;20365;-74
2022/02/06 06:12:39;;;;;;;;;;;;;;;7.76;100.00;97387.91;4672781;30;19931;-74
2022/02/06 06:15:07;;;;;;;;;;;;;;;7.82;100.00;97375.78;4688006;30;19939;-74
2022/02/06 06:17:37;;;;;;;;;;;;;;;7.97;100.00;97387.22;4688355;30;19958;-74
2022/02/06 06:20:07;;;;;;;;;;;;;;;7.74;100.00;97380.00;4672804;30;20365;-74
2022/02/06 06:22:34;;;;;;;;;;;;;;;7.68;100.00;97398.47;4688638;30;19943;-74
2022/02/06 06:25:03;;;;;;;;;;;;;;;7.68;100.00;97381.78;4673151;30;19931;-74
2022/02/06 06:27:31;;;;;;;;;;;;;;;7.80;100.00;97396.94;4688406;30;20026;-74
2022/02/06 06:29:58;;;;;;;;;;;;;;;7.70;100.00;97373.00;4688214;30;19938;-74
2022/02/06 06:32:25;;;;;;;;;;;;;;;7.73;100.00;97389.59;4658842;30;19941;-74
2022/02/06 06:34:54;;;;;;;;;;;;;;;7.81;100.00;97382.59;4688202;30;19932;-74
2022/02/06 06:37:21;;;;;;;;;;;;;;;7.64;100.00;97381.13;4659075;30;20012;-74
2022/02/06 06:39:49;;;;;;;;;;;;;;;7.42;100.00;97363.56;4688404;30;19938;-74
2022/02/06 06:42:19;;;;;;;;;;;;;;;7.54;100.00;97346.13;4688467;30;19936;-74
2022/02/06 06:44:46;;;;;;;;;;;;;;;7.75;100.00;97353.00;4657405;30;19954;-73
2022/02/06 06:47:14;;;;;;;;;;;;;;;7.69;100.00;97355.56;4685933;30;19931;-74
2022/02/06 06:49:41;;;;;;;;;;;;;;;7.70;100.00;97379.34;4685317;30;19935;-74
2022/02/06 06:52:08;;;;;;;;;;;;;;;7.73;100.00;97372.91;4685709;30;19936;-73
2022/02/06 06:54:40;;;;;;;;;;;;;;;7.64;100.00;97380.34;4670417;30;19949;-74
2022/02/06 06:57:20;;;;;;;;;;;;;;;7.68;100.00;97398.47;4685485;30;19939;-74
2022/02/06 07:04:45;;;;;;;;;;;;;;;7.47;100.00;97371.34;4685278;30;19936;-74
2022/02/06 07:07:12;;;;;;;;;;;;;;;7.52;100.00;97368.00;4670131;30;20433;-74
2022/02/06 07:09:40;;;;;;;;;;;;;;;7.69;100.00;97402.81;4685359;30;19991;-74
2022/02/06 07:12:09;;;;;;;;;;;;;;;7.62;100.00;97378.00;4685234;30;19967;-73
2022/02/06 07:14:36;;;;;;;;;;;;;;;7.78;100.00;97385.47;4655744;30;20300;-74
2022/02/06 07:17:04;;;;;;;;;;;;;;;7.62;100.00;97383.56;4685351;30;19931;-74
2022/02/06 07:19:33;;;;;;;;;;;;;;;7.48;100.00;97416.56;4670124;30;19932;-74
2022/02/06 07:22:00;;;;;;;;;;;;;;;7.62;100.00;97399.47;4685224;30;19938;-74
2022/02/06 07:24:28;;;;;;;;;;;;;;;7.48;100.00;97417.38;4685133;30;20589;-75
2022/02/06 07:27:00;;;;;;;;;;;;;;;7.65;100.00;97415.28;4684702;30;19936;-74
2022/02/06 07:29:28;;;;;;;;;;;;;;;7.55;100.00;97410.81;4684951;30;19935;-74
2022/02/06 07:31:57;;;;;;;;;;;;;;;7.49;100.00;97410.59;4652297;30;19931;-74
2022/02/06 07:34:24;;;;;;;;;;;;;;;7.42;100.00;97407.22;4667895;30;20150;-74
2022/02/06 07:36:51;;;;;;;;;;;;;;;7.77;100.00;97417.28;4652270;30;19939;-75
2022/02/06 07:39:18;;;;;;;;;;;;;;;7.23;100.00;97390.31;4652405;30;19939;-74
2022/02/06 07:41:45;;;;;;;;;;;;;;;7.14;100.00;97347.72;4667739;30;19971;-74
2022/02/06 07:44:13;;;;;;;;;;;;;;;7.38;100.00;97373.22;4667761;30;19955;-75
2022/02/06 07:46:46;;;;;;;;;;;;;;;7.18;100.00;97351.16;4667519;30;19932;-74
2022/02/06 07:49:15;;;;;;;;;;;;;;;7.17;100.00;97411.53;4667619;30;19932;-74
2022/02/06 07:51:43;;;;;;;;;;;;;;;7.06;100.00;97386.03;4652121;30;19939;-74
2022/02/06 07:54:10;;;;;;;;;;;;;;;7.35;100.00;97381.22;4652482;30;20428;-74
2022/02/06 07:56:37;;;;;;;;;;;;;;;7.29;100.00;97394.09;4667363;30;19939;-74
2022/02/06 07:59:04;;;;;;;;;;;;;;;7.44;100.00;97407.59;4667310;30;19936;-74
2022/02/06 08:01:31;;;;;;;;;;;;;;;7.18;100.00;97409.50;4666961;30;19967;-74
2022/02/06 08:03:59;;;;;;;;;;;;;;;7.18;100.00;97393.63;4667110;30;19939;-74
2022/02/06 08:06:27;;;;;;;;;;;;;;;7.23;100.00;97406.97;4675947;30;19932;-74
2022/02/06 08:08:56;;;;;;;;;;;;;;;7.26;100.00;97375.53;4676391;30;19939;-74
2022/02/06 08:11:23;;;;;;;;;;;;;;;7.29;100.00;97405.22;4651433;30;19936;-74
2022/02/06 08:13:53;;;;;;;;;;;;;;;7.14;100.00;97403.28;4651662;30;20285;-74
2022/02/06 08:16:21;;;;;;;;;;;;;;;7.39;100.00;97397.78;4667222;30;19939;-74
2022/02/06 08:18:48;;;;;;;;;;;;;;;7.45;100.00;97423.81;4654668;30;19938;-74
2022/02/06 08:21:16;;;;;;;;;;;;;;;7.32;100.00;97417.44;4684277;30;20374;-74
2022/02/06 08:27:02;;;;;;;;;;;;;;;7.34;100.00;97434.44;4684098;30;19931;-74
2022/02/06 08:29:29;;;;;;;;;;;;;;;7.15;100.00;97443.72;4683899;30;19931;-74
2022/02/06 08:31:56;;;;;;;;;;;;;;;7.14;100.00;97453.28;4683796;30;20320;-74
2022/02/06 08:34:23;;;;;;;;;;;;;;;6.95;100.00;97457.75;4683858;30;20406;-75
2022/02/06 08:36:50;;;;;;;;;;;;;;;6.91;100.00;97475.72;4668734;30;19932;-75
2022/02/06 08:39:17;;;;;;;;;;;;;;;6.77;100.00;97465.00;4683798;30;19990;-72
2022/02/06 08:41:44;;;;;;;;;;;;;;;6.61;100.00;97465.00;4668726;30;19932;-81
2022/02/06 08:44:12;;;;;;;;;;;;;;;6.56;100.00;97463.53;4653695;30;20341;-74
2022/02/06 08:46:39;;;;;;;;;;;;;;;6.45;100.00;97476.13;4653714;30;20026;-73
2022/02/06 08:49:06;;;;;;;;;;;;;;;6.30;100.00;97500.66;4668673;30;19932;-72
2022/02/06 08:51:34;;;;;;;;;;;;;;;6.52;100.00;97487.03;4654357;30;19963;-73
2022/02/06 08:54:01;;;;;;;;;;;;;;;6.49;100.00;97493.47;4668484;30;20560;-73
2022/02/06 08:56:29;;;;;;;;;;;;;;;6.51;100.00;97483.47;4668015;30;20374;-73
2022/02/06 08:58:56;;;;;;;;;;;;;;;6.74;100.00;97482.53;4683353;30;20022;-73
2022/02/06 09:01:23;;;;;;;;;;;;;;;6.73;100.00;97494.84;4683261;30;19932;-73
2022/02/06 09:03:50;;;;;;;;;;;;;;;6.88;100.00;97487.69;4667635;30;20293;-72
2022/02/06 09:06:17;;;;;;;;;;;;;;;6.97;100.00;97493.41;4651366;30;19939;-73
2022/02/06 09:08:47;;;;;;;;;;;;;;;6.98;100.00;97483.88;4665933;30;20018;-73
2022/02/06 09:11:14;;;;;;;;;;;;;;;7.05;100.00;97483.66;4650579;30;20309;-73
2022/02/06 09:13:41;;;;;;;;;;;;;;;7.06;100.00;97490.78;4671687;30;20331;-72
2022/02/06 09:16:09;;;;;;;;;;;;;;;6.91;100.00;97484.84;4683082;30;20026;-73
2022/02/06 09:18:36;;;;;;;;;;;;;;;6.94;100.00;97497.06;4662086;30;20458;-73
2022/02/06 09:21:03;;;;;;;;;;;;;;;6.79;100.00;97490.31;4666651;30;20309;-73
2022/02/06 09:23:31;;;;;;;;;;;;;;;7.01;100.00;97494.09;4683590;30;19982;-73
2022/02/06 09:25:57;;;;;;;;;;;;;;;7.01;100.00;97511.53;4677245;30;20006;-73
2022/02/06 09:28:25;;;;;;;;;;;;;;;7.02;100.00;97485.34;4672480;30;20372;-73
2022/02/06 09:30:52;;;;;;;;;;;;;;;7.07;100.00;97509.03;4659556;30;19943;-73
2022/02/06 09:35:46;;;;;;;;;;;;;;;7.30;100.00;97528.22;4656134;30;19932;-74
2022/02/06 09:38:14;;;;;;;;;;;;;;;7.09;100.00;97512.13;4667058;30;20381;-72
2022/02/06 09:40:43;;;;;;;;;;;;;;;7.27;100.00;97518.75;4682512;30;19931;-73
2022/02/06 09:43:12;;;;;;;;;;;;;;;7.41;100.00;97506.47;4678415;30;19932;-76
2022/02/06 09:45:41;;;;;;;;;;;;;;;7.21;100.00;97528.06;4664035;30;20360;-77
2022/02/06 09:48:10;;;;;;;;;;;;;;;7.21;100.00;97528.06;4679834;30;19931;-81
2022/02/06 09:50:37;;;;;;;;;;;;;;;7.11;100.00;97498.59;4679841;30;20593;-75
2022/02/06 09:53:04;;;;;;;;;;;;;;;7.25;100.00;97495.44;4678747;30;19936;-75
2022/02/06 09:55:31;;;;;;;;;;;;;;;7.25;100.00;97509.31;4636239;30;19931;-77
2022/02/06 09:58:14;;;;;;;;;;;;;;;7.22;100.00;97499.84;4636314;30;20715;-78
2022/02/06 10:00:42;;;;;;;;;;;;;;;7.15;100.00;97483.38;4679569;30;19947;-78
2022/02/06 10:03:11;;;;;;;;;;;;;;;6.97;100.00;97487.84;4679509;30;20029;-75
2022/02/06 10:05:48;;;;;;;;;;;;;;;7.08;100.00;97505.00;4679213;30;19982;-77
2022/02/06 10:08:38;;;;;;;;;;;;;;;6.95;100.00;97518.06;4679455;30;19935;-79
2022/02/06 10:11:15;;;;;;;;;;;;;;;6.09;100.00;97494.84;4679779;30;19936;-76
2022/02/06 10:13:43;;;;;;;;;;;;;;;5.82;100.00;97533.03;4679056;30;19943;-73
2022/02/06 10:16:12;;;;;;;;;;;;;;;5.79;100.00;97520.00;4663895;30;20407;-74
2022/02/06 10:18:39;;;;;;;;;;;;;;;5.80;100.00;97546.53;4664511;30;19982;-73
2022/02/06 10:21:12;;;;;;;;;;;;;;;5.33;100.00;97552.22;4681101;30;20848;-73
2022/02/06 10:23:55;;;;;;;;;;;;;;;5.30;100.00;97522.59;4678809;30;19935;-73
2022/02/06 10:26:33;;;;;;;;;;;;;;;5.30;100.00;97494.91;4660370;30;20065;-76
2022/02/06 10:29:36;;;;;;;;;;;;;;;5.72;100.00;97518.19;4682343;30;20312;-76
2022/02/06 10:32:02;;;;;;;;;;;;;;;6.02;100.00;97542.13;4681629;30;20410;-73
2022/02/06 10:34:30;;;;;;;;;;;;;;;6.10;100.00;97529.66;4682785;30;19938;-73
2022/02/06 10:37:15;;;;;;;;;;;;;;;6.14;100.00;97527.59;4682426;30;19935;-74
2022/02/06 10:40:05;;;;;;;;;;;;;;;6.26;100.00;97519.38;4682915;30;19932;-74
2022/02/06 10:42:33;;;;;;;;;;;;;;;6.43;100.00;97522.94;4666269;30;19932;-73
2022/02/06 10:45:16;;;;;;;;;;;;;;;6.42;100.00;97529.72;4660703;30;19931;-73
2022/02/06 10:47:45;;;;;;;;;;;;;;;6.44;100.00;97521.72;4649654;30;19936;-73
2022/02/06 10:50:15;;;;;;;;;;;;;;;6.56;100.00;97537.69;4667183;30;20544;-73
2022/02/06 10:52:43;;;;;;;;;;;;;;;6.41;100.00;97517.81;4660834;30;20404;-73
2022/02/06 10:55:14;;;;;;;;;;;;;;;6.43;100.00;97525.72;4663500;30;19940;-73
2022/02/06 10:57:58;;;;;;;;;;;;;;;6.48;100.00;97534.28;4635260;30;19931;-74
2022/02/06 11:00:28;;;;;;;;;;;;;;;6.22;100.00;97557.50;4663223;30;19994;-74
2022/02/06 11:03:02;;;;;;;;;;;;;;;6.33;100.00;97515.66;4649691;30;20429;-74
2022/02/06 11:05:47;;;;;;;;;;;;;;;6.57;100.00;97537.25;4677128;30;20030;-74
2022/02/06 11:08:22;;;;;;;;;;;;;;;6.66;100.00;97517.22;4652306;30;19938;-74
2022/02/06 11:10:54;;;;;;;;;;;;;;;6.92;100.00;97530.81;4665036;30;19932;-74
2022/02/06 11:13:21;;;;;;;;;;;;;;;6.76;100.00;97505.84;4636373;30;19970;-73
2022/02/06 11:15:48;;;;;;;;;;;;;;;6.77;100.00;97539.94;4664324;30;20377;-73
2022/02/06 11:18:21;;;;;;;;;;;;;;;6.31;100.00;97529.19;4651927;30;19931;-74
2022/02/06 11:20:56;;;;;;;;;;;;;;;5.77;100.00;97552.94;4648996;30;20329;-75
2022/02/06 11:23:24;;;;;;;;;;;;;;;5.55;100.00;97550.59;4650444;30;20441;-74
2022/02/06 11:25:51;;;;;;;;;;;;;;;5.42;100.00;97574.59;4679638;30;20389;-74
2022/02/06 11:28:19;;;;;;;;;;;;;;;4.95;100.00;97531.56;4670439;30;19932;-74
2022/02/06 11:30:46;;;;;;;;;;;;;;;5.00;100.00;97514.50;4665360;30;19932;-75
2022/02/06 11:33:13;;;;;;;;;;;;;;;5.28;100.00;97527.81;4645130;30;19990;-75
2022/02/06 11:35:44;;;;;;;;;;;;;;;5.50;100.00;97536.44;4661771;30;20398;-75
2022/02/06 11:44:06;;;;;;;;;;;;;;;5.76;100.00;97527.22;4652275;30;20393;-75
2022/02/06 11:46:39;;;;;;;;;;;;;;;6.04;100.00;97542.47;4664656;30;19931;-74
2022/02/06 11:49:14;;;;;;;;;;;;;;;5.86;100.00;97503.28;4674042;30;20339;-74
2022/02/06 11:51:56;;;;;;;;;;;;;;;6.03;100.00;97518.75;4666060;30;19931;-75
2022/02/06 11:54:25;;;;;;;;;;;;;;;6.31;100.00;97521.66;4665749;30;20289;-75
2022/02/06 11:57:11;;;;;;;;;;;;;;;6.16;100.00;97500.22;4665701;30;19936;-74
2022/02/06 11:59:38;;;;;;;;;;;;;;;6.26;100.00;97533.25;4664377;30;19939;-74
2022/02/06 12:02:25;;;;;;;;;;;;;;;5.76;100.00;97518.09;4664505;30;20710;-73
2022/02/06 12:05:11;;;;;;;;;;;;;;;5.31;100.00;97546.34;4679281;30;19943;-74
2022/02/06 12:07:53;;;;;;;;;;;;;;;5.12;100.00;97543.53;4637195;30;19931;-74
2022/02/06 12:10:33;;;;;;;;;;;;;;;4.89;100.00;97524.19;4680883;30;19931;-73
2022/02/06 12:13:25;;;;;;;;;;;;;;;5.14;100.00;97514.22;4680716;30;20021;-73
2022/02/06 12:15:58;;;;;;;;;;;;;;;5.60;100.00;97503.00;4651249;30;20437;-74
2022/02/06 12:18:39;;;;;;;;;;;;;;;5.67;100.00;97465.25;4678302;30;20444;-74
2022/02/06 12:21:14;;;;;;;;;;;;;;;6.12;100.00;97516.16;4664156;30;19938;-74
2022/02/06 12:23:54;;;;;;;;;;;;;;;6.02;100.00;97486.66;4663654;30;20325;-75
2022/02/06 12:28:56;;;;;;;;;;;;;;;6.59;100.00;97484.09;4663531;30;19932;-76
2022/02/06 12:31:32;;;;;;;;;;;;;;;6.56;100.00;97482.97;4647921;30;19932;-76
2022/02/06 12:37:07;;;;;;;;;;;;;;;6.73;100.00;97492.84;4634233;30;19938;-75
2022/02/06 12:39:36;;;;;;;;;;;;;;;6.69;100.00;97488.59;4664127;30;19931;-75
2022/02/06 12:42:04;;;;;;;;;;;;;;;6.81;100.00;97454.59;4663230;30;19932;-75
2022/02/06 12:44:31;;;;;;;;;;;;;;;6.48;100.00;97506.53;4662568;30;19931;-76
2022/02/06 12:46:59;;;;;;;;;;;;;;;6.05;100.00;97483.81;4692959;30;19931;-73
2022/02/06 12:49:28;;;;;;;;;;;;;;;6.17;100.00;97485.13;4696773;30;20402;-73
2022/02/06 12:51:56;;;;;;;;;;;;;;;6.18;100.00;97498.56;4652929;30;19935;-74
2022/02/06 12:54:23;;;;;;;;;;;;;;;6.51;100.00;97491.81;4682417;30;19931;-74
2022/02/06 12:56:53;;;;;;;;;;;;;;;6.51;100.00;97463.31;4670478;30;19943;-74
2022/02/06 12:59:21;;;;;;;;;;;;;;;6.63;100.00;97468.16;4633024;30;20042;-74
2022/02/06 13:01:49;;;;;;;;;;;;;;;6.61;100.00;97481.66;4634229;30;19938;-74
2022/02/06 13:04:26;;;;;;;;;;;;;;;6.56;100.00;97463.53;4647929;30;19935;-74
2022/02/06 13:07:00;;;;;;;;;;;;;;;6.67;100.00;97457.72;4643556;30;19943;-75
2022/02/06 13:09:31;;;;;;;;;;;;;;;6.63;100.00;97460.59;4655278;30;20480;-74
2022/02/06 13:12:05;;;;;;;;;;;;;;;6.68;100.00;97453.75;4679449;30;20242;-74
2022/02/06 13:20:31;;;;;;;;;;;;;;;6.58;100.00;97483.31;4647440;30;19975;-74
2022/02/06 13:23:45;;;;;;;;;;;;;;;6.75;100.00;97500.75;4661949;30;19932;-74
2022/02/06 13:26:30;;;;;;;;;;;;;;;6.69;100.00;97505.25;4668839;30;19932;-76
2022/02/06 13:29:10;;;;;;;;;;;;;;;6.73;100.00;97450.44;4656974;30;19944;-76
2022/02/06 13:32:13;;;;;;;;;;;;;;;6.83;100.00;97496.56;4652806;30;19938;-76
2022/02/06 13:37:10;;;;;;;;;;;;;;;6.69;100.00;97488.59;4680595;30;19932;-77
2022/02/06 13:39:38;;;;;;;;;;;;;;;6.66;100.00;97429.22;4681046;30;20126;-76
2022/02/06 13:42:08;;;;;;;;;;;;;;;6.85;100.00;97419.97;4668568;30;19932;-76
2022/02/06 13:44:36;;;;;;;;;;;;;;;6.75;100.00;97406.38;4667185;30;19935;-76
2022/02/06 13:47:05;;;;;;;;;;;;;;;6.79;100.00;97426.47;4662485;30;19986;-76
2022/02/06 13:49:39;;;;;;;;;;;;;;;6.78;100.00;97502.63;4650134;30;19939;-76
2022/02/06 13:52:08;;;;;;;;;;;;;;;6.78;100.00;97502.63;4677671;30;19950;-76
2022/02/06 13:54:36;;;;;;;;;;;;;;;6.71;100.00;97477.84;4661974;30;19965;-77
2022/02/06 13:57:06;;;;;;;;;;;;;;;6.75;100.00;97497.97;4684217;30;19931;-76
2022/02/06 13:59:35;;;;;;;;;;;;;;;6.72;100.00;97459.97;4681109;30;20437;-77
2022/02/06 14:02:08;;;;;;;;;;;;;;;6.86;100.00;97477.03;4672368;30;19932;-77
2022/02/06 14:04:38;;;;;;;;;;;;;;;6.97;100.00;97494.19;4684983;30;19938;-77
2022/02/06 14:07:09;;;;;;;;;;;;;;;6.68;100.00;97487.06;4686782;30;19990;-77
2022/02/06 14:12:53;;;;;;;;;;;;;;;5.72;100.00;97492.47;4599699;31;20436;-77
2022/02/06 14:15:22;;;;;;;;;;;;;;;5.94;100.00;97526.88;4596462;31;19933;-76
2022/02/06 14:17:52;;;;;;;;;;;;;;;5.68;100.00;97552.72;4602645;31;19933;-75
2022/02/06 14:20:25;;;;;;;;;;;;;;;5.06;100.00;97556.28;4583832;31;19981;-74
2022/02/06 14:22:53;;;;;;;;;;;;;;;5.00;100.00;97535.84;4612785;31;20051;-74
2022/02/06 14:25:27;;;;;;;;;;;;;;;5.51;100.00;97538.81;4599840;31;20388;-75
2022/02/06 14:27:55;;;;;;;;;;;;;;;5.76;100.00;97537.50;4595781;31;19941;-75
2022/02/06 14:30:34;;;;;;;;;;;;;;;5.96;100.00;97524.44;4596127;31;19937;-77
2022/02/06 14:33:03;;;;;;;;;;;;;;;6.08;100.00;97521.78;4596624;31;19933;-86
2022/02/06 14:35:37;;;;;;;;;;;;;;;6.10;100.00;97499.97;4599339;31;19940;-84
2022/02/06 14:38:06;;;;;;;;;;;;;;;6.33;100.00;97499.03;4596041;31;19940;-78
2022/02/06 14:43:11;;;;;;;;;;;;;;;6.66;100.00;97500.56;4604172;31;19940;-76
2022/02/06 14:45:49;;;;;;;;;;;;;;;6.68;100.00;97509.25;4604986;30;20351;-76
2022/02/06 14:48:19;;;;;;;;;;;;;;;6.73;100.00;97505.94;4639351;30;19935;-77
2022/02/06 14:50:46;;;;;;;;;;;;;;;6.96;100.00;97523.19;4668662;30;19932;-77
2022/02/06 14:53:15;;;;;;;;;;;;;;;7.06;100.00;97547.09;4653692;30;20390;-76
2022/02/06 14:55:42;;;;;;;;;;;;;;;6.89;100.00;97558.69;4653642;30;19938;-76
2022/02/06 14:58:11;;;;;;;;;;;;;;;6.69;100.00;97571.88;4651984;30;19932;-76
2022/02/06 15:00:38;;;;;;;;;;;;;;;6.42;100.00;97526.94;4653144;30;20293;-77
2022/02/06 15:03:06;;;;;;;;;;;;;;;6.39;100.00;97569.41;4652988;30;19932;-76
2022/02/06 15:05:35;;;;;;;;;;;;;;;6.51;100.00;97571.50;4638330;30;19939;-76
2022/02/06 15:08:11;;;;;;;;;;;;;;;6.59;100.00;97551.47;4639571;30;19932;-77
2022/02/06 15:10:38;;;;;;;;;;;;;;;6.67;100.00;97557.63;4672262;30;19938;-77
2022/02/06 15:13:08;;;;;;;;;;;;;;;6.49;100.00;97571.94;4681505;30;19951;-76
2022/02/06 15:15:43;;;;;;;;;;;;;;;6.62;100.00;97583.16;4682661;30;19931;-77
2022/02/06 15:18:23;;;;;;;;;;;;;;;5.66;100.00;97524.66;4651584;30;20034;-76
2022/02/06 15:20:53;;;;;;;;;;;;;;;4.93;100.00;97589.34;4680282;30;19931;-77
2022/02/06 15:23:22;;;;;;;;;;;;;;;5.13;100.00;97606.81;4650786;30;19939;-77
2022/02/06 15:25:49;;;;;;;;;;;;;;;5.17;100.00;97634.41;4670017;30;20034;-77
2022/02/06 15:29:12;;;;;;;;;;;;;;;5.54;100.00;97629.38;5030614;27;2148375;-76
2022/02/06 15:31:39;;;;;;;;;;;;;;;5.65;100.00;97637.47;5055393;28;19931;-77
2022/02/06 15:34:14;;;;;;;;;;;;;;;5.63;100.00;97616.94;5063264;28;19924;-77
2022/02/06 15:36:47;;;;;;;;;;;;;;;5.79;100.00;97609.50;5091251;28;20015;-77
2022/02/06 15:39:21;;;;;;;;;;;;;;;5.79;100.00;97598.41;5066346;28;20344;-77
2022/02/06 15:41:51;;;;;;;;;;;;;;;5.51;100.00;97596.97;5071021;28;20398;-77
2022/02/06 15:44:20;;;;;;;;;;;;;;;5.30;100.00;97557.84;5063620;28;19924;-77
2022/02/06 15:46:47;;;;;;;;;;;;;;;4.98;100.00;97649.75;5083450;28;20064;-77
2022/02/06 15:49:14;;;;;;;;;;;;;;;4.69;100.00;97651.41;5069777;28;19974;-77
2022/02/06 15:51:42;;;;;;;;;;;;;;;4.76;100.00;97634.69;5062573;28;19928;-77